Time;durP1;ratioP1;P1;durP2;ratioP2;P2;SDS_P1;SDS_P2;PMS_P1;PMS_P2;Temp;Humidity;BMP_temperature;BMP_pressure;BME280_temperature;BME280_humidity;BME280_pressure;Samples;Min_cycle;Max_cycle;Signal;HPM_P1;HPM_P2
2023/07/15 00:02:24;;;;;;;8.02;4.22;;;;;;;;;;4383451;32;69349;-59
2023/07/15 00:05:22;;;;;;;13.90;6.03;;;;;;;;;;4381904;32;67791;-59
2023/07/15 00:08:09;;;;;;;9.48;4.47;;;;;;;;;;4392695;32;71401;-58
2023/07/15 00:10:56;;;;;;;11.70;5.62;;;;;;;;;;4381799;32;70320;-58
2023/07/15 00:13:42;;;;;;;;;;;;;;;;;;4382160;32;68316;-58
2023/07/15 00:16:30;;;;;;;8.80;4.87;;;;;;;;;;4360325;32;67872;-58
2023/07/15 00:19:19;;;;;;;11.70;5.20;;;;;;;;;;4370931;32;71045;-58
2023/07/15 00:22:09;;;;;;;11.75;6.85;;;;;;;;;;4381901;32;65719;-58
2023/07/15 00:24:55;;;;;;;13.75;7.70;;;;;;;;;;4391995;32;67484;-58
2023/07/15 00:27:46;;;;;;;16.12;8.35;;;;;;;;;;4381993;32;60238;-58
2023/07/15 00:30:33;;;;;;;19.08;9.23;;;;;;;;;;4381581;32;70055;-57
2023/07/15 00:33:20;;;;;;;21.33;11.80;;;;;;;;;;4370974;32;68260;-58
2023/07/15 00:36:08;;;;;;;25.90;13.57;;;;;;;;;;4381664;32;67619;-59
2023/07/15 00:38:55;;;;;;;22.85;13.15;;;;;;;;;;4392492;32;59364;-58
2023/07/15 00:41:42;;;;;;;22.23;12.65;;;;;;;;;;4370014;32;70272;-59
2023/07/15 00:44:28;;;;;;;;;;;;;;;;;;4383425;32;68438;-59
2023/07/15 00:47:21;;;;;;;24.42;14.98;;;;;;;;;;4381550;32;66758;-58
2023/07/15 00:50:09;;;;;;;23.42;12.40;;;;;;;;;;4392131;32;71691;-58
2023/07/15 00:52:55;;;;;;;;;;;;;;;;;;4371131;32;65644;-58
2023/07/15 00:55:42;;;;;;;17.12;9.90;;;;;;;;;;4382758;32;66898;-59
2023/07/15 00:58:29;;;;;;;15.50;9.18;;;;;;;;;;4370870;32;59163;-58
2023/07/15 01:01:15;;;;;;;;;;;;;;;;;;4381647;32;71679;-59
2023/07/15 01:04:02;;;;;;;14.38;8.63;;;;;;;;;;4380903;32;64870;-58
2023/07/15 01:06:50;;;;;;;15.35;8.70;;;;;;;;;;4370244;32;68334;-57
2023/07/15 01:09:36;;;;;;;;;;;;;;;;;;4381245;32;60810;-58
2023/07/15 01:12:23;;;;;;;14.05;7.85;;;;;;;;;;4382672;32;69759;-59
2023/07/15 01:15:10;;;;;;;;;;;;;;;;;;4384364;32;69656;-57
2023/07/15 01:17:58;;;;;;;13.57;5.50;;;;;;;;;;4373551;32;67725;-59
2023/07/15 01:20:45;;;;;;;6.68;4.50;;;;;;;;;;4372689;32;72428;-59
2023/07/15 01:23:32;;;;;;;;;;;;;;;;;;4394712;32;70463;-59
2023/07/15 01:26:19;;;;;;;11.35;5.62;;;;;;;;;;4372983;32;68753;-59
2023/07/15 01:29:05;;;;;;;10.02;6.05;;;;;;;;;;4383771;32;67487;-59
2023/07/15 01:31:52;;;;;;;10.20;6.12;;;;;;;;;;4383704;32;71011;-58
2023/07/15 01:34:38;;;;;;;;;;;;;;;;;;4384083;32;66036;-59
2023/07/15 01:37:24;;;;;;;9.88;6.25;;;;;;;;;;4372768;32;68463;-58
2023/07/15 01:40:13;;;;;;;13.02;6.53;;;;;;;;;;4385213;32;59102;-59
2023/07/15 01:42:59;;;;;;;10.23;5.75;;;;;;;;;;4372852;32;70533;-58
2023/07/15 01:45:46;;;;;;;11.48;5.85;;;;;;;;;;4372232;32;69963;-59
2023/07/15 01:48:33;;;;;;;10.23;5.45;;;;;;;;;;4371921;32;68574;-59
2023/07/15 01:51:20;;;;;;;7.82;4.97;;;;;;;;;;4394429;32;60141;-59
2023/07/15 01:54:06;;;;;;;9.18;5.05;;;;;;;;;;4382349;32;71216;-59
2023/07/15 01:56:53;;;;;;;;;;;;;;;;;;4373207;32;69140;-58
2023/07/15 01:59:39;;;;;;;9.50;5.50;;;;;;;;;;4372320;32;67338;-59
2023/07/15 02:02:26;;;;;;;10.52;5.50;;;;;;;;;;4372431;32;70731;-59
2023/07/15 02:05:14;;;;;;;12.07;5.37;;;;;;;;;;4383472;32;65717;-58
2023/07/15 02:08:01;;;;;;;10.00;5.12;;;;;;;;;;4372612;32;67170;-57
2023/07/15 02:10:49;;;;;;;8.60;4.97;;;;;;;;;;4384810;32;59396;-58
2023/07/15 02:13:35;;;;;;;9.25;5.12;;;;;;;;;;4372866;32;71722;-58
2023/07/15 02:16:22;;;;;;;7.53;4.60;;;;;;;;;;4383520;32;66010;-59
2023/07/15 02:19:10;;;;;;;10.07;5.40;;;;;;;;;;4383205;32;67535;-59
2023/07/15 02:21:57;;;;;;;10.43;4.65;;;;;;;;;;4371820;32;60895;-58
2023/07/15 02:24:43;;;;;;;7.40;4.30;;;;;;;;;;4383199;32;70450;-59
2023/07/15 02:27:30;;;;;;;;;;;;;;;;;;4394309;32;69148;-59
2023/07/15 02:30:19;;;;;;;8.18;4.60;;;;;;;;;;4384363;32;67665;-58
2023/07/15 02:33:06;;;;;;;6.78;4.40;;;;;;;;;;4372202;32;71539;-58
2023/07/15 02:35:53;;;;;;;9.15;4.65;;;;;;;;;;4383061;32;66056;-59
2023/07/15 02:38:40;;;;;;;7.22;3.70;;;;;;;;;;4383044;32;69219;-58
2023/07/15 02:41:27;;;;;;;7.28;3.90;;;;;;;;;;4383037;32;68054;-58
2023/07/15 02:44:13;;;;;;;;;;;;;;;;;;4372372;32;70727;-59
2023/07/15 02:47:00;;;;;;;;;;;;;;;;;;4384413;32;66059;-58
2023/07/15 02:49:46;;;;;;;6.57;3.80;;;;;;;;;;4371919;32;68103;-58
2023/07/15 02:52:33;;;;;;;;;;;;;;;;;;4382455;32;59942;-58
2023/07/15 02:55:19;;;;;;;9.13;4.27;;;;;;;;;;4372065;32;69194;-58
2023/07/15 02:58:07;;;;;;;9.57;5.28;;;;;;;;;;4382546;32;69341;-58
2023/07/15 03:00:53;;;;;;;7.97;4.55;;;;;;;;;;4360308;32;67398;-58
2023/07/15 03:03:41;;;;;;;8.85;4.97;;;;;;;;;;4372283;32;59134;-58
2023/07/15 03:06:31;;;;;;;12.25;6.15;;;;;;;;;;4371474;32;70170;-59
2023/07/15 03:09:20;;;;;;;10.13;5.75;;;;;;;;;;4360317;32;69632;-58
2023/07/15 03:12:11;;;;;;;16.67;8.13;;;;;;;;;;4371995;32;68059;-58
2023/07/15 03:14:58;;;;;;;18.45;8.07;;;;;;;;;;4382341;32;71615;-57
2023/07/15 03:17:46;;;;;;;18.02;8.45;;;;;;;;;;4371999;32;65704;-58
2023/07/15 03:20:33;;;;;;;16.25;7.50;;;;;;;;;;4381624;32;68504;-58
2023/07/15 03:23:22;;;;;;;13.45;7.68;;;;;;;;;;4372237;32;59277;-59
2023/07/15 03:26:09;;;;;;;14.00;8.23;;;;;;;;;;4381634;32;70581;-57
2023/07/15 03:28:57;;;;;;;15.50;7.57;;;;;;;;;;4382241;32;65942;-58
2023/07/15 03:31:44;;;;;;;13.43;6.68;;;;;;;;;;4392875;32;67047;-58
2023/07/15 03:34:30;;;;;;;;;;;;;;;;;;4382391;32;59444;-58
2023/07/15 03:37:17;;;;;;;15.83;6.33;;;;;;;;;;4383532;32;70047;-58
2023/07/15 03:40:08;;;;;;;15.23;7.10;;;;;;;;;;4383354;32;68352;-58
2023/07/15 03:42:54;;;;;;;18.85;8.23;;;;;;;;;;4371367;32;67553;-58
2023/07/15 03:45:41;;;;;;;;;;;;;;;;;;4382447;32;71719;-57
2023/07/15 03:48:28;;;;;;;22.60;10.47;;;;;;;;;;4371498;32;66648;-58
2023/07/15 03:51:14;;;;;;;22.50;10.98;;;;;;;;;;4370542;32;68773;-58
2023/07/15 03:54:01;;;;;;;23.92;10.80;;;;;;;;;;4370348;32;68170;-57
2023/07/15 03:56:47;;;;;;;24.45;12.25;;;;;;;;;;4371151;32;71792;-58
2023/07/15 03:59:34;;;;;;;;;;;;;;;;;;4382428;32;65807;-59
2023/07/15 04:02:20;;;;;;;25.35;10.93;;;;;;;;;;4381615;32;68491;-57
2023/07/15 04:05:08;;;;;;;21.33;10.75;;;;;;;;;;4370860;32;60144;-58
2023/07/15 04:07:55;;;;;;;19.98;9.10;;;;;;;;;;4381769;32;69729;-59
2023/07/15 04:10:44;;;;;;;21.37;9.40;;;;;;;;;;4373777;32;69206;-59
2023/07/15 04:13:31;;;;;;;15.63;7.60;;;;;;;;;;4387818;32;68135;-59
2023/07/15 04:16:18;;;;;;;19.40;8.05;;;;;;;;;;4371402;32;60226;-58
2023/07/15 04:19:04;;;;;;;;;;;;;;;;;;4381430;32;71513;-59
2023/07/15 04:21:51;;;;;;;13.82;7.03;;;;;;;;;;4383415;32;69451;-63
2023/07/15 04:24:38;;;;;;;15.23;7.32;;;;;;;;;;4374696;32;67298;-59
2023/07/15 04:27:24;;;;;;;9.32;4.90;;;;;;;;;;4377944;32;71221;-58
2023/07/15 04:30:11;;;;;;;13.30;5.60;;;;;;;;;;4380384;32;64910;-59
2023/07/15 04:32:58;;;;;;;13.02;6.28;;;;;;;;;;4379557;32;68359;-58
2023/07/15 04:35:45;;;;;;;9.55;5.15;;;;;;;;;;4391161;32;58963;-58
2023/07/15 04:38:32;;;;;;;12.52;5.85;;;;;;;;;;4380279;32;69757;-59
2023/07/15 04:41:19;;;;;;;13.45;7.22;;;;;;;;;;4390095;32;66027;-58
2023/07/15 04:44:06;;;;;;;14.23;7.18;;;;;;;;;;4379907;32;67223;-58
2023/07/15 04:46:52;;;;;;;;;;;;;;;;;;4377076;32;59369;-58
2023/07/15 04:49:39;;;;;;;11.87;6.47;;;;;;;;;;4391521;32;69910;-59
2023/07/15 04:52:26;;;;;;;10.57;5.15;;;;;;;;;;4387261;32;69407;-59
2023/07/15 04:55:14;;;;;;;10.10;5.72;;;;;;;;;;4383329;32;67175;-58
2023/07/15 04:58:01;;;;;;;12.05;6.40;;;;;;;;;;4384166;32;70851;-58
2023/07/15 05:00:50;;;;;;;9.55;6.43;;;;;;;;;;4372639;32;66083;-58
2023/07/15 05:03:38;;;;;;;11.73;6.28;;;;;;;;;;4372672;32;68258;-58
2023/07/15 05:06:25;;;;;;;12.63;6.90;;;;;;;;;;4372709;32;65974;-58
2023/07/15 05:09:11;;;;;;;12.82;7.60;;;;;;;;;;4383426;32;71478;-58
2023/07/15 05:11:59;;;;;;;11.70;7.43;;;;;;;;;;4394488;32;65812;-59
2023/07/15 05:14:45;;;;;;;13.25;7.20;;;;;;;;;;4383326;32;68349;-58
2023/07/15 05:17:32;;;;;;;12.73;8.57;;;;;;;;;;4373491;32;59061;-58
2023/07/15 05:20:19;;;;;;;13.73;7.72;;;;;;;;;;4384992;32;69583;-58
2023/07/15 05:23:06;;;;;;;15.93;8.20;;;;;;;;;;4383152;32;69916;-58
2023/07/15 05:25:55;;;;;;;14.10;8.43;;;;;;;;;;4383495;32;67268;-59
2023/07/15 05:28:41;;;;;;;16.10;9.20;;;;;;;;;;4384458;32;70745;-59
2023/07/15 05:31:28;;;;;;;15.35;9.40;;;;;;;;;;4388434;32;70437;-58
2023/07/15 05:34:15;;;;;;;13.32;8.35;;;;;;;;;;4385315;32;69049;-58
2023/07/15 05:37:02;;;;;;;12.27;7.55;;;;;;;;;;4373279;32;67508;-58
2023/07/15 05:39:49;;;;;;;12.05;8.38;;;;;;;;;;4383705;32;70714;-58
2023/07/15 05:42:38;;;;;;;;;;;;;;;;;;4373713;32;64984;-58
2023/07/15 05:45:25;;;;;;;11.98;7.45;;;;;;;;;;4373047;32;67794;-59
2023/07/15 05:48:11;;;;;;;;;;;;;;;;;;4372651;32;60898;-57
2023/07/15 05:50:58;;;;;;;;;;;;;;;;;;4393735;32;68944;-58
2023/07/15 05:53:45;;;;;;;11.48;6.62;;;;;;;;;;4384698;32;69353;-57
2023/07/15 05:56:32;;;;;;;11.52;8.13;;;;;;;;;;4382479;32;68470;-58
2023/07/15 05:59:19;;;;;;;;;;;;;;;;;;4383296;32;60661;-57
2023/07/15 06:02:06;;;;;;;12.20;8.23;;;;;;;;;;4372287;32;71160;-58
2023/07/15 06:04:53;;;;;;;9.35;7.03;;;;;;;;;;4382502;32;69909;-58
2023/07/15 06:07:40;;;;;;;9.98;6.15;;;;;;;;;;4371996;32;68557;-58
2023/07/15 06:10:26;;;;;;;9.05;5.65;;;;;;;;;;4383008;32;71676;-57
2023/07/15 06:13:13;;;;;;;7.78;5.47;;;;;;;;;;4361211;32;65294;-57
2023/07/15 06:16:00;;;;;;;7.93;4.95;;;;;;;;;;4382636;32;68003;-59
2023/07/15 06:18:46;;;;;;;6.60;5.10;;;;;;;;;;4372440;32;67749;-58
2023/07/15 06:21:35;;;;;;;7.00;4.87;;;;;;;;;;4371895;32;71059;-59
2023/07/15 06:24:21;;;;;;;9.75;5.35;;;;;;;;;;4382849;32;64858;-60
2023/07/15 06:27:07;;;;;;;;;;;;;;;;;;4371949;32;68405;-59
2023/07/15 06:29:54;;;;;;;7.00;5.53;;;;;;;;;;4383500;32;59903;-58
2023/07/15 06:32:40;;;;;;;10.18;6.35;;;;;;;;;;4371262;32;71082;-59
2023/07/15 06:35:27;;;;;;;9.07;6.03;;;;;;;;;;4382800;32;69383;-58
2023/07/15 06:38:13;;;;;;;8.18;5.43;;;;;;;;;;4393793;32;67183;-58
2023/07/15 06:41:00;;;;;;;;;;;;;;;;;;4372986;32;71027;-58
2023/07/15 06:43:46;;;;;;;8.07;5.30;;;;;;;;;;4375719;32;70508;-58
2023/07/15 06:46:33;;;;;;;6.53;4.90;;;;;;;;;;4372046;32;69374;-58
2023/07/15 06:49:19;;;;;;;;;;;;;;;;;;4383189;32;66885;-58
2023/07/15 06:52:06;;;;;;;6.28;5.10;;;;;;;;;;4382876;32;72011;-59
2023/07/15 06:54:53;;;;;;;6.47;4.50;;;;;;;;;;4372177;32;65994;-57
2023/07/15 06:57:39;;;;;;;;;;;;;;;;;;4382432;32;67655;-58
2023/07/15 07:00:27;;;;;;;7.43;5.80;;;;;;;;;;4371989;32;58898;-58
2023/07/15 07:03:13;;;;;;;7.72;4.65;;;;;;;;;;4382526;32;69416;-58
2023/07/15 07:06:01;;;;;;;;;;;;;;;;;;4382908;32;69304;-59
2023/07/15 07:08:48;;;;;;;6.35;3.95;;;;;;;;;;4371184;32;68036;-59
2023/07/15 07:11:35;;;;;;;5.10;3.90;;;;;;;;;;4383043;32;59375;-58
2023/07/15 07:14:21;;;;;;;5.68;4.28;;;;;;;;;;4381722;32;71506;-57
2023/07/15 07:17:08;;;;;;;;;;;;;;;;;;4393503;32;69605;-56
2023/07/15 07:19:54;;;;;;;4.97;3.45;;;;;;;;;;4372094;32;67030;-58
2023/07/15 07:22:40;;;;;;;;;;;;;;;;;;4383932;32;71709;-57
2023/07/15 07:25:27;;;;;;;4.65;3.72;;;;;;;;;;4361106;32;66143;-59
2023/07/15 07:28:13;;;;;;;5.47;3.92;;;;;;;;;;4371670;32;67924;-57
2023/07/15 07:31:00;;;;;;;5.72;3.78;;;;;;;;;;4393119;32;59333;-57
2023/07/15 07:33:47;;;;;;;4.72;3.47;;;;;;;;;;4371570;32;70620;-58
2023/07/15 07:36:34;;;;;;;3.78;2.90;;;;;;;;;;4360687;32;65942;-57
2023/07/15 07:39:21;;;;;;;4.40;2.50;;;;;;;;;;4383867;32;67456;-59
2023/07/15 07:42:08;;;;;;;7.25;3.72;;;;;;;;;;4371980;32;59160;-58
2023/07/15 07:44:55;;;;;;;5.68;3.40;;;;;;;;;;4370964;32;71212;-57
2023/07/15 07:47:41;;;;;;;;;;;;;;;;;;4382217;32;69454;-58
2023/07/15 07:50:28;;;;;;;5.00;3.73;;;;;;;;;;4382086;32;66779;-59
2023/07/15 07:53:15;;;;;;;5.55;3.40;;;;;;;;;;4371255;32;71801;-59
2023/07/15 07:56:02;;;;;;;4.93;2.83;;;;;;;;;;4381895;32;66807;-58
2023/07/15 07:58:54;;;;;;;3.95;2.87;;;;;;;;;;4359996;32;70076;-59
2023/07/15 08:01:41;;;;;;;5.35;3.22;;;;;;;;;;4371226;32;66818;-58
2023/07/15 08:04:30;;;;;;;4.07;2.12;;;;;;;;;;4370819;32;72173;-59
2023/07/15 08:07:17;;;;;;;3.20;2.08;;;;;;;;;;4383087;32;66078;-59
2023/07/15 08:10:05;;;;;;;4.10;2.30;;;;;;;;;;4360003;32;68472;-60
2023/07/15 08:12:52;;;;;;;3.42;2.35;;;;;;;;;;4370848;32;60760;-59
2023/07/15 08:15:39;;;;;;;2.90;2.20;;;;;;;;;;4370352;32;70333;-59
2023/07/15 08:18:26;;;;;;;2.95;2.15;;;;;;;;;;4370672;32;68966;-58
2023/07/15 08:21:13;;;;;;;2.92;2.10;;;;;;;;;;4370379;32;66339;-59
2023/07/15 08:24:00;;;;;;;3.03;2.08;;;;;;;;;;4370910;32;60038;-58
2023/07/15 08:26:47;;;;;;;3.55;2.50;;;;;;;;;;4371024;32;70573;-59
2023/07/15 08:29:33;;;;;;;3.35;2.40;;;;;;;;;;4380731;32;69875;-57
2023/07/15 08:32:20;;;;;;;4.93;2.55;;;;;;;;;;4370427;32;67301;-59
2023/07/15 08:35:07;;;;;;;5.18;3.05;;;;;;;;;;4369715;32;72406;-58
2023/07/15 08:37:54;;;;;;;4.25;3.00;;;;;;;;;;4381542;32;66037;-58
2023/07/15 08:40:41;;;;;;;3.58;2.55;;;;;;;;;;4370646;32;67024;-58
2023/07/15 08:43:31;;;;;;;4.87;2.08;;;;;;;;;;4371001;32;59233;-59
2023/07/15 08:46:29;;;;;;;4.07;2.92;;;;;;;;;;4380548;32;69013;-58
2023/07/15 08:49:39;;;;;;;5.55;2.90;;;;;;;;;;3868746;36;43892;-57
2023/07/15 08:52:27;;;;;;;4.72;2.92;;;;;;;;;;4393308;32;59341;-57
2023/07/15 08:55:14;;;;;;;5.30;2.78;;;;;;;;;;4398799;32;70465;-59
2023/07/15 08:58:02;;;;;;;4.20;2.50;;;;;;;;;;4364500;32;69167;-58
2023/07/15 09:00:50;;;;;;;5.45;3.60;;;;;;;;;;4399131;32;66685;-59
2023/07/15 09:03:36;;;;;;;4.43;3.17;;;;;;;;;;4374664;32;69588;-59
2023/07/15 09:06:23;;;;;;;4.20;3.45;;;;;;;;;;4388218;32;64841;-59
2023/07/15 09:09:12;;;;;;;4.47;3.33;;;;;;;;;;4387977;32;66192;-59
2023/07/15 09:12:07;;;;;;;5.43;3.03;;;;;;;;;;4375352;32;60763;-58
2023/07/15 09:14:53;;;;;;;6.12;3.45;;;;;;;;;;4385490;32;71022;-59
2023/07/15 09:17:42;;;;;;;4.15;3.10;;;;;;;;;;4375168;32;66605;-58
2023/07/15 09:20:29;;;;;;;4.90;3.10;;;;;;;;;;4398927;32;67755;-58
2023/07/15 09:23:16;;;;;;;4.62;2.78;;;;;;;;;;4387587;32;60550;-58
2023/07/15 09:26:04;;;;;;;5.03;3.42;;;;;;;;;;4388379;32;70594;-57
2023/07/15 09:28:50;;;;;;;5.10;3.20;;;;;;;;;;4374401;32;69024;-58
2023/07/15 09:31:39;;;;;;;5.07;3.70;;;;;;;;;;4399147;32;67838;-56
2023/07/15 09:34:26;;;;;;;6.43;3.10;;;;;;;;;;4377544;32;71484;-60
2023/07/15 09:37:28;;;;;;;5.20;3.12;;;;;;;;;;4375370;32;64661;-58
2023/07/15 09:40:15;;;;;;;4.65;2.97;;;;;;;;;;4388313;32;68354;-58
2023/07/15 09:43:02;;;;;;;4.65;2.95;;;;;;;;;;4374555;32;68324;-57
2023/07/15 09:45:49;;;;;;;5.45;3.05;;;;;;;;;;4387563;32;72786;-59
2023/07/15 09:48:37;;;;;;;5.37;3.33;;;;;;;;;;4374282;32;65954;-58
2023/07/15 09:51:25;;;;;;;4.35;2.85;;;;;;;;;;4384867;32;66670;-59
2023/07/15 09:54:13;;;;;;;3.75;2.72;;;;;;;;;;4386630;32;58112;-59
2023/07/15 09:57:10;;;;;;;3.75;2.67;;;;;;;;;;4363912;32;68960;-59
2023/07/15 09:59:58;;;;;;;4.80;2.50;;;;;;;;;;4367538;32;67344;-58
2023/07/15 10:02:49;;;;;;;5.20;3.05;;;;;;;;;;4351769;32;66619;-58
2023/07/15 10:05:38;;;;;;;3.80;2.28;;;;;;;;;;4364875;32;59619;-58
2023/07/15 10:08:25;;;;;;;4.00;2.58;;;;;;;;;;4363408;32;68246;-58
2023/07/15 10:11:13;;;;;;;3.08;2.22;;;;;;;;;;4363582;32;68334;-57
2023/07/15 10:14:00;;;;;;;4.72;2.47;;;;;;;;;;4385217;32;67119;-58
2023/07/15 10:17:14;;;;;;;6.22;2.90;;;;;;;;;;4376597;32;69436;-60
2023/07/15 10:20:15;;;;;;;4.62;2.70;;;;;;;;;;4373994;32;65773;-61
2023/07/15 10:23:03;;;;;;;5.18;2.30;;;;;;;;;;4378086;32;65618;-61
2023/07/15 10:25:59;;;;;;;3.92;2.35;;;;;;;;;;4364274;32;60561;-59
2023/07/15 10:28:53;;;;;;;3.50;2.20;;;;;;;;;;4373754;32;70357;-58
2023/07/15 10:31:40;;;;;;;2.45;2.03;;;;;;;;;;4374519;32;66029;-57
2023/07/15 10:34:50;;;;;;;3.72;2.50;;;;;;;;;;4366077;32;66459;-58
2023/07/15 10:37:36;;;;;;;4.12;2.33;;;;;;;;;;4361853;32;61136;-58
2023/07/15 10:40:49;;;;;;;4.45;2.40;;;;;;;;;;4383231;32;70560;-58
2023/07/15 10:43:35;;;;;;;3.55;2.65;;;;;;;;;;4372819;32;69405;-58
2023/07/15 10:46:22;;;;;;;;;;;;;;;;;;4373117;32;67768;-59
2023/07/15 10:49:08;;;;;;;4.82;2.60;;;;;;;;;;4393545;32;70944;-59
2023/07/15 10:51:56;;;;;;;3.25;2.50;;;;;;;;;;4372517;32;65546;-58
2023/07/15 10:54:55;;;;;;;7.55;2.90;;;;;;;;;;3829097;37;43999;-59
2023/07/15 10:57:42;;;;;;;3.03;2.33;;;;;;;;;;4371077;32;59743;-57
2023/07/15 11:00:31;;;;;;;3.62;2.65;;;;;;;;;;4384093;32;70365;-59
2023/07/15 11:03:20;;;;;;;3.08;2.28;;;;;;;;;;4373223;32;68354;-59
2023/07/15 11:06:06;;;;;;;3.20;2.40;;;;;;;;;;4373838;32;66432;-57
2023/07/15 11:08:54;;;;;;;3.87;2.30;;;;;;;;;;4364219;32;70529;-59
2023/07/15 11:11:41;;;;;;;3.10;2.30;;;;;;;;;;4365349;32;63934;-61
2023/07/15 11:14:28;;;;;;;3.45;2.35;;;;;;;;;;4383680;32;67115;-59
2023/07/15 11:17:15;;;;;;;2.60;2.10;;;;;;;;;;4373381;32;59406;-59
2023/07/15 11:20:07;;;;;;;4.80;2.50;;;;;;;;;;4383498;32;71765;-59
2023/07/15 11:22:54;;;;;;;4.10;2.50;;;;;;;;;;4372774;32;66050;-59
2023/07/15 11:25:41;;;;;;;5.22;2.75;;;;;;;;;;4362666;32;67577;-59
2023/07/15 11:28:27;;;;;;;3.75;2.53;;;;;;;;;;4372930;32;59134;-59
2023/07/15 11:31:14;;;;;;;5.28;2.58;;;;;;;;;;4383273;32;69643;-58
2023/07/15 11:34:02;;;;;;;6.18;2.83;;;;;;;;;;4395219;32;69438;-58
2023/07/15 11:36:51;;;;;;;4.47;2.80;;;;;;;;;;4383429;32;66780;-59
2023/07/15 11:39:41;;;;;;;3.70;2.60;;;;;;;;;;4361845;32;71657;-59
2023/07/15 11:42:28;;;;;;;5.10;2.70;;;;;;;;;;4372791;32;66004;-58
2023/07/15 11:45:14;;;;;;;4.68;2.53;;;;;;;;;;4395203;32;68991;-59
2023/07/15 11:48:01;;;;;;;2.75;2.33;;;;;;;;;;4383113;32;67608;-59
2023/07/15 11:50:48;;;;;;;4.43;2.90;;;;;;;;;;4359404;32;70591;-59
2023/07/15 11:53:38;;;;;;;4.90;2.42;;;;;;;;;;4369510;32;64767;-59
2023/07/15 11:56:45;;;;;;;2.75;2.42;;;;;;;;;;4370073;32;68022;-58
2023/07/15 11:59:32;;;;;;;6.18;2.83;;;;;;;;;;4362339;32;60155;-57
2023/07/15 12:02:19;;;;;;;;;;;;;;;;;;4359744;32;71470;-57
2023/07/15 12:05:06;;;;;;;;;;;;;;;;;;4364853;32;67101;-59
2023/07/15 12:07:52;;;;;;;4.37;2.83;;;;;;;;;;4373278;32;67261;-58
2023/07/15 12:10:52;;;;;;;7.45;3.22;;;;;;;;;;4363013;32;60208;-60
2023/07/15 12:13:39;;;;;;;5.20;3.30;;;;;;;;;;4373650;32;70692;-58
2023/07/15 12:16:26;;;;;;;8.00;3.10;;;;;;;;;;4351766;32;69491;-58
2023/07/15 12:19:18;;;;;;;5.07;3.20;;;;;;;;;;4372996;32;67984;-57
2023/07/15 12:22:06;;;;;;;3.90;2.97;;;;;;;;;;4362143;32;71851;-58
2023/07/15 12:24:52;;;;;;;;;;;;;;;;;;4373151;32;65747;-58
2023/07/15 12:27:39;;;;;;;;;;;;;;;;;;4348773;32;66213;-59
2023/07/15 12:30:25;;;;;;;4.07;3.12;;;;;;;;;;4385065;32;58838;-60
2023/07/15 12:33:12;;;;;;;4.18;2.92;;;;;;;;;;4372514;32;70604;-59
2023/07/15 12:35:58;;;;;;;7.72;3.40;;;;;;;;;;4359257;32;66838;-59
2023/07/15 12:38:46;;;;;;;5.20;2.97;;;;;;;;;;4351810;32;67757;-59
2023/07/15 12:41:32;;;;;;;4.65;3.10;;;;;;;;;;4362151;32;60104;-59
2023/07/15 12:44:19;;;;;;;6.37;2.92;;;;;;;;;;4351336;32;70618;-59
2023/07/15 12:47:05;;;;;;;4.68;2.65;;;;;;;;;;4351560;32;69281;-58
2023/07/15 12:49:52;;;;;;;5.37;3.05;;;;;;;;;;4372778;32;67367;-57
2023/07/15 12:52:38;;;;;;;;;;;;;;;;;;4337822;32;71391;-59
2023/07/15 12:55:27;;;;;;;6.32;3.60;;;;;;;;;;4372228;32;65697;-59
2023/07/15 12:58:13;;;;;;;6.37;3.22;;;;;;;;;;4369461;32;67996;-58
2023/07/15 13:01:00;;;;;;;4.22;3.12;;;;;;;;;;4372165;32;66638;-59
2023/07/15 13:03:47;;;;;;;4.07;2.67;;;;;;;;;;4358781;32;72162;-58
2023/07/15 13:06:34;;;;;;;5.30;2.83;;;;;;;;;;4372456;32;66102;-58
2023/07/15 13:09:20;;;;;;;;;;;;;;;;;;4372680;32;67782;-59
2023/07/15 13:12:07;;;;;;;3.87;2.77;;;;;;;;;;4362221;32;59707;-58
2023/07/15 13:14:55;;;;;;;4.87;3.05;;;;;;;;;;4350945;32;70495;-57
2023/07/15 13:17:42;;;;;;;5.32;3.33;;;;;;;;;;4360521;32;69491;-59
2023/07/15 13:20:28;;;;;;;5.90;2.92;;;;;;;;;;4358901;32;68162;-59
2023/07/15 13:23:16;;;;;;;4.05;2.60;;;;;;;;;;4348447;32;59871;-59
2023/07/15 13:26:02;;;;;;;4.75;2.85;;;;;;;;;;4383771;32;70520;-58
2023/07/15 13:28:50;;;;;;;5.05;2.72;;;;;;;;;;4361365;32;67955;-59
2023/07/15 13:31:36;;;;;;;;;;;;;;;;;;4372463;32;67248;-59
2023/07/15 13:34:23;;;;;;;4.10;3.10;;;;;;;;;;4361181;32;71845;-59
2023/07/15 13:37:09;;;;;;;5.80;2.78;;;;;;;;;;4350883;32;65931;-58
2023/07/15 13:39:56;;;;;;;2.95;2.53;;;;;;;;;;4368823;32;68041;-59
2023/07/15 13:42:42;;;;;;;;;;;;;;;;;;4361723;32;60357;-58
2023/07/15 13:45:29;;;;;;;5.90;3.20;;;;;;;;;;4358602;32;70433;-59
2023/07/15 13:48:15;;;;;;;4.30;2.55;;;;;;;;;;4348161;32;66828;-58
2023/07/15 13:51:02;;;;;;;;;;;;;;;;;;4372111;32;67412;-58
2023/07/15 13:53:48;;;;;;;4.50;2.85;;;;;;;;;;4357865;32;60105;-58
2023/07/15 13:56:35;;;;;;;3.40;2.50;;;;;;;;;;4347731;32;71371;-59
2023/07/15 13:59:22;;;;;;;3.45;2.35;;;;;;;;;;4360953;32;68567;-59
2023/07/15 14:02:15;;;;;;;5.68;2.67;;;;;;;;;;4358372;32;68529;-59
2023/07/15 14:05:02;;;;;;;5.93;2.80;;;;;;;;;;4361200;32;72145;-59
2023/07/15 14:07:50;;;;;;;3.67;2.70;;;;;;;;;;4361280;32;65894;-58
2023/07/15 14:10:38;;;;;;;4.32;2.33;;;;;;;;;;4368662;32;68418;-59
2023/07/15 14:13:24;;;;;;;3.95;2.67;;;;;;;;;;4347278;32;68151;-58
2023/07/15 14:16:11;;;;;;;4.47;2.70;;;;;;;;;;4383246;32;71647;-59
2023/07/15 14:18:58;;;;;;;3.65;2.50;;;;;;;;;;4371386;32;66030;-59
2023/07/15 14:21:45;;;;;;;3.17;2.28;;;;;;;;;;4371154;32;67721;-60
2023/07/15 14:24:32;;;;;;;3.97;2.67;;;;;;;;;;4360914;32;60041;-59
2023/07/15 14:27:19;;;;;;;3.87;2.60;;;;;;;;;;4360431;32;69597;-59
2023/07/15 14:30:07;;;;;;;4.80;2.70;;;;;;;;;;4371233;32;69522;-58
2023/07/15 14:32:53;;;;;;;4.82;2.62;;;;;;;;;;4360702;32;66900;-59
2023/07/15 14:35:40;;;;;;;5.40;2.85;;;;;;;;;;4371223;32;71991;-59
2023/07/15 14:38:26;;;;;;;5.57;3.00;;;;;;;;;;4371035;32;69510;-59
2023/07/15 14:41:12;;;;;;;;;;;;;;;;;;4371577;32;68655;-59
2023/07/15 14:44:00;;;;;;;4.68;2.80;;;;;;;;;;4358257;32;68199;-58
2023/07/15 14:46:46;;;;;;;;;;;;;;;;;;4347378;32;72323;-58
2023/07/15 14:49:33;;;;;;;3.45;2.50;;;;;;;;;;4371295;32;65817;-58
2023/07/15 14:52:19;;;;;;;3.33;2.40;;;;;;;;;;4357528;32;67233;-60
2023/07/15 14:55:06;;;;;;;3.25;2.40;;;;;;;;;;4370986;32;59985;-59
2023/07/15 14:57:53;;;;;;;4.00;2.62;;;;;;;;;;4336399;32;71826;-59
2023/07/15 15:00:39;;;;;;;4.68;2.90;;;;;;;;;;4370927;32;69567;-59
2023/07/15 15:03:26;;;;;;;;;;;;;;;;;;4371392;32;67531;-58
2023/07/15 15:06:13;;;;;;;3.70;2.50;;;;;;;;;;4383116;32;59910;-59
2023/07/15 15:09:00;;;;;;;3.25;2.58;;;;;;;;;;4367701;32;71104;-59
2023/07/15 15:11:46;;;;;;;2.35;2.15;;;;;;;;;;4370687;32;68319;-59
2023/07/15 15:14:33;;;;;;;;;;;;;;;;;;4357672;32;67318;-59
2023/07/15 15:17:20;;;;;;;5.40;2.67;;;;;;;;;;4382690;32;72042;-58
2023/07/15 15:20:07;;;;;;;3.97;2.58;;;;;;;;;;4370836;32;64851;-59
2023/07/15 15:22:53;;;;;;;3.72;2.22;;;;;;;;;;4360300;32;67822;-57
2023/07/15 15:25:40;;;;;;;2.55;2.20;;;;;;;;;;4347157;32;60711;-59
2023/07/15 15:28:29;;;;;;;4.15;2.40;;;;;;;;;;4370544;32;71494;-58
2023/07/15 15:31:16;;;;;;;3.42;2.60;;;;;;;;;;4346778;32;66979;-58
2023/07/15 15:34:02;;;;;;;4.70;2.37;;;;;;;;;;4357343;32;68595;-59
2023/07/15 15:36:49;;;;;;;3.83;2.70;;;;;;;;;;4346864;32;57961;-59
2023/07/15 15:39:35;;;;;;;;;;;;;;;;;;4371167;32;70767;-58
2023/07/15 15:42:22;;;;;;;3.78;2.72;;;;;;;;;;4371280;32;69485;-59
2023/07/15 15:45:09;;;;;;;5.03;2.80;;;;;;;;;;4373860;32;66797;-59
2023/07/15 15:47:55;;;;;;;4.78;2.90;;;;;;;;;;4363158;32;71954;-58
2023/07/15 15:50:43;;;;;;;6.12;2.58;;;;;;;;;;4349024;32;71136;-59
2023/07/15 15:53:31;;;;;;;4.55;2.78;;;;;;;;;;4372572;32;69723;-60
2023/07/15 15:56:17;;;;;;;4.03;2.30;;;;;;;;;;4373388;32;67570;-58
2023/07/15 15:59:05;;;;;;;4.15;2.47;;;;;;;;;;4373034;32;71730;-59
2023/07/15 16:01:52;;;;;;;2.90;2.60;;;;;;;;;;4373122;32;65831;-58
2023/07/15 16:04:39;;;;;;;3.55;2.55;;;;;;;;;;4349956;32;68203;-59
2023/07/15 16:07:25;;;;;;;3.72;2.75;;;;;;;;;;4385477;32;60019;-59
2023/07/15 16:10:12;;;;;;;5.00;2.72;;;;;;;;;;4372706;32;70711;-59
2023/07/15 16:12:58;;;;;;;;;;;;;;;;;;4338951;32;69840;-59
2023/07/15 16:15:47;;;;;;;6.90;2.70;;;;;;;;;;4362385;32;68186;-58
2023/07/15 16:18:34;;;;;;;3.75;2.53;;;;;;;;;;4362403;32;59188;-59
2023/07/15 16:21:21;;;;;;;5.93;2.78;;;;;;;;;;4349041;32;71560;-60
2023/07/15 16:24:07;;;;;;;;;;;;;;;;;;4352019;32;69559;-58
2023/07/15 16:26:54;;;;;;;4.00;2.83;;;;;;;;;;4362414;32;67752;-59
2023/07/15 16:29:41;;;;;;;4.40;3.00;;;;;;;;;;4372678;32;71729;-58
2023/07/15 16:32:27;;;;;;;2.92;2.62;;;;;;;;;;4348658;32;66648;-59
2023/07/15 16:35:14;;;;;;;3.80;2.70;;;;;;;;;;4362273;32;67052;-59
2023/07/15 16:38:00;;;;;;;4.05;2.92;;;;;;;;;;4384746;32;60380;-58
2023/07/15 16:40:47;;;;;;;7.37;2.80;;;;;;;;;;4361786;32;70785;-59
2023/07/15 16:43:35;;;;;;;4.47;2.80;;;;;;;;;;4384616;32;65997;-58
2023/07/15 16:46:21;;;;;;;6.30;3.25;;;;;;;;;;4384520;32;67050;-58
2023/07/15 16:49:08;;;;;;;5.95;2.65;;;;;;;;;;4372753;32;60061;-59
2023/07/15 16:51:54;;;;;;;4.32;2.80;;;;;;;;;;4348141;32;71205;-59
2023/07/15 16:54:41;;;;;;;3.37;2.70;;;;;;;;;;4368826;32;69682;-59
2023/07/15 16:57:27;;;;;;;;;;;;;;;;;;4362178;32;67818;-58